This is the latest recevied weather packets stored in our database for station/object KB3FKJ. If no packets are shown the sender has not sent any weather packets the latest 10 day(s).
| Time | Temp. | Humidity | Pressure | Rain* | Wind** | Luminosity | Snow |
|---|---|---|---|---|---|---|---|
| 1778027144 | 18.33° C | 71% | 1007.3 hPa | 0 mm | - | 0 W/m² | - |
| 1778026840 | 18.33° C | 68% | 1007.3 hPa | 0 mm | - | 1 W/m² | - |
| 1778026536 | 18.33° C | 68% | 1007.2 hPa | 0 mm | - | 1 W/m² | - |
| 1778026234 | 18.89° C | 68% | 1007.2 hPa | 0 mm | - | 2 W/m² | - |
| 1778025931 | 18.89° C | 66% | 1007.1 hPa | 0 mm | - | 3 W/m² | - |
| 1778025628 | 19.44° C | 64% | 1007.1 hPa | 0 mm | - | 4 W/m² | - |
| 1778025326 | 19.44° C | 64% | 1007.3 hPa | 0 mm | - | 6 W/m² | - |
| 1778025023 | 19.44° C | 65% | 1007.1 hPa | 0 mm | - | 8 W/m² | - |
| 1778024720 | 19.44° C | 66% | 1007.1 hPa | 0 mm | - | 10 W/m² | - |
| 1778024417 | 19.44° C | 65% | 1007 hPa | 0 mm | - | 12 W/m² | - |
| 1778024114 | 19.44° C | 66% | 1007 hPa | 0 mm | - | 14 W/m² | - |
| 1778023811 | 18.89° C | 67% | 1006.7 hPa | 0 mm | - | 16 W/m² | - |
| 1778023509 | 18.89° C | 70% | 1006.9 hPa | 0 mm | - | 19 W/m² | - |
| 1778023206 | 19.44° C | 70% | 1006.9 hPa | 0 mm | - | 24 W/m² | - |
| 1778022903 | 19.44° C | 70% | 1006.9 hPa | 0 mm | - | 26 W/m² | - |
| 1778022602 | 20° C | 68% | 1007.1 hPa | 0 mm | - | 25 W/m² | - |
| 1778022299 | 20.56° C | 65% | 1006.8 hPa | 0 mm | - | 27 W/m² | - |
| 1778021995 | 20.56° C | 62% | 1006.8 hPa | 0 mm | - | 35 W/m² | - |
| 1778021692 | 20.56° C | 61% | 1006.8 hPa | 0 mm | - | 41 W/m² | - |
| 1778021388 | 20.56° C | 63% | 1007.1 hPa | 0 mm | - | 44 W/m² | - |
| 1778021085 | 20.56° C | 64% | 1006.8 hPa | 0 mm | - | 49 W/m² | - |
| 1778020783 | 20.56° C | 65% | 1007 hPa | 0 mm | - | 52 W/m² | - |
| 1778020479 | 20° C | 68% | 1007.1 hPa | 0 mm | - | 54 W/m² | - |
| 1778020176 | 20.56° C | 66% | 1007.1 hPa | 0 mm | - | 45 W/m² | - |
| 1778019872 | 20.56° C | 68% | 1007.1 hPa | 0 mm | - | 46 W/m² | - |
* Rain latest hour (hover to see other rain measurements)
** Current wind speed in m/s (hover to see current wind gust speed)